createdAt,value
2019-04-25T00:02:27.652Z,11.20
2019-04-25T00:04:57.293Z,11.10
2019-04-25T00:07:27.054Z,11.10
2019-04-25T00:09:56.914Z,10.90
2019-04-25T00:12:26.695Z,10.90
2019-04-25T00:14:56.321Z,10.80
2019-04-25T00:17:27.017Z,10.80
2019-04-25T00:19:56.683Z,10.80
2019-04-25T00:22:27.871Z,10.80
2019-04-25T00:24:57.448Z,10.70
2019-04-25T00:27:27.613Z,10.70
2019-04-25T00:29:57.945Z,10.60
2019-04-25T00:32:27.692Z,10.50
2019-04-25T00:34:57.303Z,10.40
2019-04-25T00:37:26.795Z,10.40
2019-04-25T00:39:56.331Z,10.40
2019-04-25T00:42:26.207Z,10.40
2019-04-25T00:44:56.064Z,10.40
2019-04-25T00:47:25.613Z,10.30
2019-04-25T00:49:55.163Z,10.30
2019-04-25T00:52:24.744Z,10.40
2019-04-25T00:54:54.412Z,10.20
2019-04-25T00:57:24.486Z,10.40
2019-04-25T01:00:11.604Z,10.40
2019-04-25T01:02:44.079Z,10.40
2019-04-25T01:05:13.725Z,10.30
2019-04-25T01:07:44.271Z,10.40
2019-04-25T01:10:14.792Z,10.40
2019-04-25T01:12:44.698Z,10.30
2019-04-25T01:15:15.011Z,10.30
2019-04-25T01:17:45.416Z,10.30
2019-04-25T01:20:15.409Z,10.40
2019-04-25T01:22:45.784Z,10.20
2019-04-25T01:25:15.771Z,10.20
2019-04-25T01:27:46.092Z,10.10
2019-04-25T01:30:16.445Z,10.20
2019-04-25T01:32:46.785Z,10.10
2019-04-25T01:35:16.687Z,10.10
2019-04-25T01:37:54.831Z,10.00
2019-04-25T01:40:43.948Z,10.00
2019-04-25T01:43:33.176Z,10.00
2019-04-25T01:46:03.457Z,9.90
2019-04-25T01:48:33.438Z,9.90
2019-04-25T01:51:04.126Z,9.90
2019-04-25T01:53:35.512Z,9.90
2019-04-25T01:56:07.735Z,9.90
2019-04-25T01:58:37.022Z,10.00
2019-04-25T02:01:06.905Z,10.00
2019-04-25T02:03:36.783Z,9.90
2019-04-25T02:06:06.680Z,10.00
2019-04-25T02:08:36.306Z,10.10
2019-04-25T02:11:10.725Z,10.10
2019-04-25T02:13:40.493Z,10.20
2019-04-25T02:16:10.822Z,10.30
2019-04-25T02:18:40.639Z,10.30
2019-04-25T02:21:11.397Z,10.30
2019-04-25T02:23:41.143Z,10.10
2019-04-25T02:26:15.935Z,10.10
2019-04-25T02:28:43.689Z,10.30
2019-04-25T02:31:17.998Z,10.50
2019-04-25T02:33:44.936Z,10.50
2019-04-25T02:36:15.216Z,10.40
2019-04-25T02:38:45.136Z,10.50
2019-04-25T02:41:15.045Z,10.50
2019-04-25T02:43:45.307Z,10.50
2019-04-25T02:46:17.316Z,10.60
2019-04-25T02:48:49.846Z,10.50
2019-04-25T02:51:21.321Z,10.40
2019-04-25T02:54:00.020Z,10.30
2019-04-25T02:56:34.408Z,10.30
2019-04-25T02:59:00.990Z,10.10
2019-04-25T03:01:30.961Z,10.00
2019-04-25T03:04:00.934Z,9.90
2019-04-25T03:06:30.622Z,9.80
2019-04-25T03:09:01.899Z,9.80
2019-04-25T03:11:31.630Z,9.80
2019-04-25T03:14:02.109Z,9.70
2019-04-25T03:16:31.859Z,9.70
2019-04-25T03:19:08.253Z,9.70
2019-04-25T03:21:39.918Z,9.70
2019-04-25T03:24:13.101Z,9.70
2019-04-25T03:26:40.903Z,9.60
2019-04-25T03:29:10.959Z,9.70
2019-04-25T03:31:40.745Z,9.70
2019-04-25T03:34:14.783Z,9.80
2019-04-25T03:36:41.603Z,9.80
2019-04-25T03:39:11.345Z,9.80
2019-04-25T03:41:40.984Z,9.80
2019-04-25T03:44:10.688Z,9.80
2019-04-25T03:46:40.343Z,9.70
2019-04-25T03:49:10.123Z,9.70
2019-04-25T03:51:39.769Z,9.60
2019-04-25T03:54:10.559Z,9.50
2019-04-25T03:56:49.887Z,9.40
2019-04-25T03:59:14.171Z,9.50
2019-04-25T04:01:43.911Z,9.60
2019-04-25T04:04:16.197Z,9.50
2019-04-25T04:06:44.979Z,9.60
2019-04-25T04:09:15.211Z,9.60
2019-04-25T04:11:44.807Z,9.40
2019-04-25T04:14:15.633Z,9.40
2019-04-25T04:17:05.098Z,9.50
2019-04-25T04:19:36.545Z,9.50
2019-04-25T04:22:24.176Z,9.90
2019-04-25T04:24:55.800Z,9.80
2019-04-25T04:27:26.002Z,9.90
2019-04-25T04:29:55.752Z,10.00
2019-04-25T04:32:25.745Z,10.10
2019-04-25T04:34:55.218Z,10.10
2019-04-25T04:37:24.910Z,10.10
2019-04-25T04:39:54.476Z,9.90
2019-04-25T04:42:25.346Z,9.80
2019-04-25T04:44:55.093Z,10.00
2019-04-25T04:47:25.339Z,10.50
2019-04-25T04:49:55.102Z,10.90
2019-04-25T04:52:25.847Z,10.90
2019-04-25T04:55:05.357Z,11.30
2019-04-25T04:57:33.271Z,12.10
2019-04-25T04:59:58.877Z,14.40
2019-04-25T05:02:33.489Z,15.60
2019-04-25T05:05:20.991Z,16.60
2019-04-25T05:07:53.962Z,16.10
2019-04-25T05:10:24.603Z,17.30
2019-04-25T05:12:54.332Z,16.00
2019-04-25T05:15:24.766Z,18.00
2019-04-25T05:17:54.665Z,18.70
2019-04-25T05:20:24.432Z,18.40
2019-04-25T05:22:55.008Z,16.70
2019-04-25T05:25:24.919Z,17.40
2019-04-25T05:28:02.010Z,18.10
2019-04-25T05:30:31.121Z,19.30
2019-04-25T05:33:00.807Z,19.80
2019-04-25T05:35:30.997Z,19.70
2019-04-25T05:38:00.743Z,18.80
2019-04-25T05:40:30.534Z,19.10
2019-04-25T05:43:07.632Z,19.20
2019-04-25T05:45:37.510Z,21.50
2019-04-25T05:48:07.458Z,22.30
2019-04-25T05:50:37.152Z,21.20
2019-04-25T05:53:08.310Z,22.30
2019-04-25T05:55:38.038Z,22.50
2019-04-25T05:58:07.909Z,23.20
2019-04-25T06:00:37.853Z,21.10
2019-04-25T06:03:07.771Z,23.50
2019-04-25T06:05:37.513Z,22.20
2019-04-25T06:08:07.477Z,21.00
2019-04-25T06:10:41.751Z,21.40
2019-04-25T06:13:11.370Z,22.20
2019-04-25T06:15:43.350Z,19.20
2019-04-25T06:18:21.224Z,17.80
2019-04-25T06:20:51.159Z,17.60
2019-04-25T06:23:38.485Z,18.40
2019-04-25T06:26:19.852Z,18.20
2019-04-25T06:28:49.139Z,19.80
2019-04-25T06:31:11.043Z,21.00
2019-04-25T06:33:40.707Z,22.10
2019-04-25T06:36:10.458Z,21.50
2019-04-25T06:38:40.217Z,21.20
2019-04-25T06:41:10.122Z,20.30
2019-04-25T06:43:41.256Z,21.20
2019-04-25T06:46:13.946Z,22.50
2019-04-25T06:48:45.723Z,22.80
2019-04-25T06:51:15.493Z,21.30
2019-04-25T06:53:45.074Z,22.90
2019-04-25T06:56:14.958Z,24.00
2019-04-25T06:58:44.542Z,24.90
2019-04-25T07:01:14.334Z,23.00
2019-04-25T07:03:44.259Z,23.70
2019-04-25T07:06:14.771Z,23.80
2019-04-25T07:08:44.713Z,23.70
2019-04-25T07:11:14.695Z,22.40
2019-04-25T07:13:44.442Z,20.90
2019-04-25T07:16:14.538Z,21.60
2019-04-25T07:18:44.176Z,20.40
2019-04-25T07:21:14.289Z,19.30
2019-04-25T07:23:46.203Z,20.20
2019-04-25T07:26:17.587Z,22.20
2019-04-25T07:29:05.370Z,19.80
2019-04-25T07:31:53.973Z,19.10
2019-04-25T07:34:28.874Z,22.30
2019-04-25T07:36:58.472Z,22.40
2019-04-25T07:39:28.226Z,22.30
2019-04-25T07:41:57.925Z,22.60
2019-04-25T07:44:39.500Z,21.10
2019-04-25T07:46:59.250Z,19.60
2019-04-25T07:49:28.914Z,18.30
2019-04-25T07:51:58.659Z,17.00
2019-04-25T07:54:28.987Z,17.10
2019-04-25T07:56:58.869Z,16.90
2019-04-25T07:59:29.039Z,17.30
2019-04-25T08:01:58.729Z,17.40
2019-04-25T08:04:29.051Z,17.10
2019-04-25T08:06:58.708Z,17.00
2019-04-25T08:09:28.621Z,17.10
2019-04-25T08:11:59.271Z,17.10
2019-04-25T08:14:34.177Z,17.00
2019-04-25T08:17:06.472Z,16.90
2019-04-25T08:19:37.169Z,16.70
2019-04-25T08:22:07.257Z,16.30
2019-04-25T08:24:37.344Z,16.40
2019-04-25T08:27:07.268Z,16.40
2019-04-25T08:29:39.260Z,16.40
2019-04-25T08:32:08.463Z,16.50
2019-04-25T08:34:38.612Z,16.40
2019-04-25T08:37:17.370Z,16.40
2019-04-25T08:39:39.799Z,16.60
2019-04-25T08:42:09.586Z,17.20
2019-04-25T08:44:39.291Z,16.80
2019-04-25T08:47:09.002Z,16.70
2019-04-25T08:49:40.548Z,17.20
2019-04-25T08:52:10.180Z,17.50
2019-04-25T08:54:57.724Z,17.80
2019-04-25T08:57:44.880Z,18.00
2019-04-25T09:00:17.067Z,18.30
2019-04-25T09:02:54.510Z,17.90
2019-04-25T09:05:26.789Z,17.60
2019-04-25T09:07:56.634Z,17.90
2019-04-25T09:10:26.397Z,18.10
2019-04-25T09:12:56.218Z,17.90
2019-04-25T09:15:25.808Z,18.10
2019-04-25T09:17:55.586Z,18.10
2019-04-25T09:20:25.300Z,18.10
2019-04-25T09:22:55.044Z,18.30
2019-04-25T09:25:24.810Z,18.20
2019-04-25T09:27:54.707Z,18.20
2019-04-25T09:30:24.388Z,18.30
2019-04-25T09:32:54.097Z,18.50
2019-04-25T09:35:23.783Z,18.80
2019-04-25T09:37:53.662Z,18.90
2019-04-25T09:40:24.037Z,19.20
2019-04-25T09:42:55.731Z,19.30
2019-04-25T09:45:26.444Z,19.40
2019-04-25T09:48:00.908Z,19.70
2019-04-25T09:50:37.509Z,19.60
2019-04-25T09:53:15.472Z,18.90
2019-04-25T09:55:41.742Z,19.20
2019-04-25T09:58:13.606Z,19.90
2019-04-25T10:00:46.569Z,19.50
2019-04-25T10:03:16.351Z,19.70
2019-04-25T10:05:46.868Z,20.10
2019-04-25T10:08:16.642Z,20.00
2019-04-25T10:10:46.754Z,19.90
2019-04-25T10:13:16.516Z,19.30
2019-04-25T10:16:12.556Z,19.40
2019-04-25T10:18:43.718Z,20.20
2019-04-25T10:21:14.418Z,20.20
2019-04-25T10:23:46.448Z,19.90
2019-04-25T10:26:15.784Z,19.90
2019-04-25T10:28:45.430Z,19.90
2019-04-25T10:31:15.272Z,20.70
2019-04-25T10:33:46.675Z,20.70
2019-04-25T10:36:16.564Z,20.00
2019-04-25T10:39:00.505Z,20.70
2019-04-25T10:41:18.400Z,20.50
2019-04-25T10:43:48.372Z,20.10
2019-04-25T10:46:18.711Z,20.50
2019-04-25T10:48:48.594Z,20.40
2019-04-25T10:51:18.238Z,20.40
2019-04-25T10:53:48.805Z,20.00
2019-04-25T10:56:18.544Z,19.60
2019-04-25T10:58:48.499Z,20.00
2019-04-25T11:01:18.211Z,19.90
2019-04-25T11:03:54.416Z,20.00
2019-04-25T11:06:26.267Z,20.00
2019-04-25T11:08:56.646Z,19.90
2019-04-25T11:11:26.657Z,19.90
2019-04-25T11:13:58.385Z,19.70
2019-04-25T11:16:28.197Z,19.60
2019-04-25T11:18:58.216Z,19.70
2019-04-25T11:21:28.326Z,19.70
2019-04-25T11:23:58.169Z,20.10
2019-04-25T11:26:27.996Z,20.50
2019-04-25T11:28:58.615Z,19.80
2019-04-25T11:31:29.943Z,20.60
2019-04-25T11:34:00.000Z,21.10
2019-04-25T11:36:29.630Z,20.80
2019-04-25T11:39:07.202Z,21.10
2019-04-25T11:41:37.055Z,21.10
2019-04-25T11:44:07.540Z,20.80
2019-04-25T11:46:39.310Z,20.50
2019-04-25T11:49:08.940Z,20.90
2019-04-25T11:51:38.507Z,20.50
2019-04-25T11:54:08.311Z,20.40
2019-04-25T11:56:37.934Z,20.30
2019-04-25T11:59:07.675Z,20.00
2019-04-25T12:01:37.366Z,19.90
2019-04-25T12:04:07.161Z,19.80
2019-04-25T12:06:37.003Z,20.20
2019-04-25T12:09:07.150Z,20.90
2019-04-25T12:11:37.087Z,21.20
2019-04-25T12:14:07.028Z,20.50
2019-04-25T12:16:36.806Z,21.00
2019-04-25T12:19:06.770Z,21.10
2019-04-25T12:21:36.599Z,21.30
2019-04-25T12:24:06.763Z,21.30
2019-04-25T12:26:36.480Z,21.40
2019-04-25T12:29:06.225Z,21.20
2019-04-25T12:31:36.041Z,20.80
2019-04-25T12:34:05.802Z,21.00
2019-04-25T12:36:35.690Z,20.90
2019-04-25T12:39:07.439Z,20.90
2019-04-25T12:41:37.485Z,21.10
2019-04-25T12:44:08.916Z,21.10
2019-04-25T12:46:40.254Z,20.90
2019-04-25T12:49:09.756Z,20.80
2019-04-25T12:51:39.510Z,21.30
2019-04-25T12:54:09.547Z,21.50
2019-04-25T12:56:39.531Z,21.20
2019-04-25T12:59:09.072Z,21.30
2019-04-25T13:01:38.873Z,21.30
2019-04-25T13:04:08.920Z,21.50
2019-04-25T13:06:38.669Z,21.30
2019-04-25T13:09:08.509Z,21.60
2019-04-25T13:11:38.198Z,21.60
2019-04-25T13:14:08.031Z,21.80
2019-04-25T13:16:37.630Z,21.90
2019-04-25T13:19:14.823Z,22.20
2019-04-25T13:21:38.926Z,22.00
2019-04-25T13:24:08.668Z,22.50
2019-04-25T13:26:40.026Z,22.20
2019-04-25T13:29:09.528Z,22.00
2019-04-25T13:31:57.282Z,22.00
2019-04-25T13:34:36.419Z,22.00
2019-04-25T13:37:04.980Z,22.00
2019-04-25T13:39:35.058Z,21.70
2019-04-25T13:42:06.714Z,21.70
2019-04-25T13:44:36.487Z,21.80
2019-04-25T13:47:07.025Z,21.90
2019-04-25T13:49:37.008Z,21.70
2019-04-25T13:52:07.219Z,22.00
2019-04-25T13:54:36.953Z,21.60
2019-04-25T13:57:06.916Z,22.00
2019-04-25T13:59:36.715Z,22.20
2019-04-25T14:02:07.225Z,22.40
2019-04-25T14:04:37.056Z,22.00
2019-04-25T14:07:07.261Z,22.30
2019-04-25T14:09:36.904Z,22.10
2019-04-25T14:12:07.068Z,21.80
2019-04-25T14:14:36.860Z,22.00
2019-04-25T14:17:24.768Z,22.10
2019-04-25T14:20:10.422Z,22.50
2019-04-25T14:22:40.290Z,22.70
2019-04-25T14:25:10.690Z,22.80
2019-04-25T14:27:40.417Z,22.60
2019-04-25T14:30:13.487Z,22.60
2019-04-25T14:32:43.554Z,22.60
2019-04-25T14:35:14.347Z,22.50
2019-04-25T14:37:44.251Z,22.10
2019-04-25T14:40:14.363Z,22.00
2019-04-25T14:42:44.214Z,22.20
2019-04-25T14:45:14.676Z,22.00
2019-04-25T14:47:44.536Z,21.60
2019-04-25T14:50:14.667Z,21.80
2019-04-25T14:52:44.354Z,21.70
2019-04-25T14:55:33.791Z,21.70
2019-04-25T14:58:05.079Z,22.00
2019-04-25T15:00:42.202Z,22.20
2019-04-25T15:03:12.318Z,22.40
2019-04-25T15:05:43.525Z,22.20
2019-04-25T15:08:13.949Z,22.00
2019-04-25T15:10:43.663Z,21.90
2019-04-25T15:13:13.862Z,21.90
2019-04-25T15:15:43.700Z,21.80
2019-04-25T15:18:13.655Z,22.00
2019-04-25T15:20:43.487Z,21.90
2019-04-25T15:23:13.165Z,21.90
2019-04-25T15:25:42.925Z,22.10
2019-04-25T15:28:12.645Z,22.10
2019-04-25T15:30:42.753Z,22.20
2019-04-25T15:33:12.767Z,22.00
2019-04-25T15:35:55.359Z,22.00
2019-04-25T15:38:38.400Z,21.80
2019-04-25T15:41:15.694Z,22.00
2019-04-25T15:44:00.237Z,21.80
2019-04-25T15:46:34.458Z,21.70
2019-04-25T15:49:04.345Z,21.70
2019-04-25T15:51:34.009Z,21.80
2019-04-25T15:54:03.855Z,21.90
2019-04-25T15:56:33.503Z,22.00
2019-04-25T15:59:03.237Z,21.90
2019-04-25T16:01:33.368Z,21.90
2019-04-25T16:04:02.999Z,21.90
2019-04-25T16:06:32.737Z,21.90
2019-04-25T16:09:02.492Z,22.10
2019-04-25T16:11:32.998Z,22.00
2019-04-25T16:14:02.839Z,22.20
2019-04-25T16:16:33.251Z,22.20
2019-04-25T16:19:04.294Z,22.30
2019-04-25T16:21:34.006Z,22.30
2019-04-25T16:24:03.903Z,22.20
2019-04-25T16:26:33.727Z,22.20
2019-04-25T16:29:03.375Z,22.20
2019-04-25T16:31:33.208Z,22.30
2019-04-25T16:34:03.039Z,22.30
2019-04-25T16:36:32.699Z,22.40
2019-04-25T16:39:03.989Z,22.60
2019-04-25T16:41:33.832Z,22.70
2019-04-25T16:44:05.393Z,22.80
2019-04-25T16:46:35.427Z,22.70
2019-04-25T16:49:05.200Z,22.70
2019-04-25T16:51:35.818Z,22.80
2019-04-25T16:54:06.055Z,22.70
2019-04-25T16:56:36.900Z,22.70
2019-04-25T16:59:06.598Z,22.70
2019-04-25T17:01:36.216Z,22.60
2019-04-25T17:04:06.989Z,22.60
2019-04-25T17:06:36.846Z,22.60
2019-04-25T17:09:07.121Z,22.30
2019-04-25T17:11:37.053Z,22.30
2019-04-25T17:14:08.390Z,22.30
2019-04-25T17:16:39.631Z,22.20
2019-04-25T17:19:23.148Z,22.10
2019-04-25T17:21:52.729Z,22.00
2019-04-25T17:24:23.009Z,22.00
2019-04-25T17:26:52.787Z,21.90
2019-04-25T17:29:22.529Z,22.00
2019-04-25T17:32:02.948Z,21.90
2019-04-25T17:34:34.204Z,21.80
2019-04-25T17:37:20.748Z,21.70
2019-04-25T17:39:55.001Z,21.70
2019-04-25T17:42:25.118Z,21.70
2019-04-25T17:44:54.890Z,21.70
2019-04-25T17:47:24.754Z,21.60
2019-04-25T17:49:54.374Z,21.60
2019-04-25T17:52:24.490Z,21.60
2019-04-25T17:54:54.582Z,21.60
2019-04-25T17:57:24.599Z,21.60
2019-04-25T17:59:54.309Z,21.40
2019-04-25T18:02:24.538Z,21.30
2019-04-25T18:04:54.484Z,21.30
2019-04-25T18:07:24.608Z,21.20
2019-04-25T18:09:54.449Z,21.10
2019-04-25T18:12:24.254Z,21.00
2019-04-25T18:14:55.520Z,21.00
2019-04-25T18:17:25.516Z,21.00
2019-04-25T18:19:59.627Z,20.90
2019-04-25T18:22:47.275Z,20.80
2019-04-25T18:25:17.048Z,20.70
2019-04-25T18:27:48.242Z,20.70
2019-04-25T18:30:18.095Z,20.60
2019-04-25T18:33:10.524Z,20.60
2019-04-25T18:35:41.680Z,20.50
2019-04-25T18:38:16.192Z,20.40
2019-04-25T18:41:03.458Z,20.40
2019-04-25T18:43:35.579Z,20.30
2019-04-25T18:46:07.943Z,20.30
2019-04-25T18:48:38.328Z,20.20
2019-04-25T18:51:08.050Z,20.20
2019-04-25T18:53:39.338Z,20.20
2019-04-25T18:56:28.897Z,20.30
2019-04-25T18:59:01.097Z,20.20
2019-04-25T19:01:41.709Z,20.20
2019-04-25T19:04:13.133Z,20.20
2019-04-25T19:06:52.771Z,20.10
2019-04-25T19:09:14.668Z,19.90
2019-04-25T19:11:45.097Z,19.80
2019-04-25T19:14:15.096Z,19.70
2019-04-25T19:16:45.547Z,19.60
2019-04-25T19:19:15.265Z,19.40
2019-04-25T19:21:45.498Z,19.20
2019-04-25T19:24:15.435Z,19.10
2019-04-25T19:26:46.093Z,19.00
2019-04-25T19:29:16.032Z,19.00
2019-04-25T19:31:46.325Z,18.90
2019-04-25T19:34:16.193Z,18.80
2019-04-25T19:36:46.864Z,18.70
2019-04-25T19:39:18.495Z,18.60
2019-04-25T19:42:06.012Z,18.50
2019-04-25T19:44:35.711Z,18.30
2019-04-25T19:47:05.759Z,18.30
2019-04-25T19:49:35.496Z,18.30
2019-04-25T19:52:05.222Z,18.30
2019-04-25T19:54:34.777Z,18.20
2019-04-25T19:57:04.698Z,18.20
2019-04-25T19:59:34.334Z,18.30
2019-04-25T20:02:08.964Z,18.10
2019-04-25T20:04:40.341Z,18.00
2019-04-25T20:07:27.389Z,18.00
2019-04-25T20:10:14.941Z,18.00
2019-04-25T20:12:49.906Z,17.90
2019-04-25T20:15:17.972Z,17.80
2019-04-25T20:17:47.760Z,17.90
2019-04-25T20:20:17.759Z,18.00
2019-04-25T20:22:48.169Z,17.70
2019-04-25T20:25:17.987Z,17.50
2019-04-25T20:27:48.538Z,17.10
2019-04-25T20:30:18.568Z,16.80
2019-04-25T20:32:49.223Z,16.60
2019-04-25T20:35:19.077Z,16.40
2019-04-25T20:37:49.259Z,16.30
2019-04-25T20:40:19.017Z,16.20
2019-04-25T20:42:48.540Z,16.10
2019-04-25T20:45:18.684Z,16.00
2019-04-25T20:47:48.406Z,16.00
2019-04-25T20:50:18.108Z,16.00
2019-04-25T20:52:48.776Z,15.90
2019-04-25T20:55:18.506Z,15.90
2019-04-25T20:57:49.354Z,15.90
2019-04-25T21:00:40.847Z,15.80
2019-04-25T21:03:10.716Z,15.80
2019-04-25T21:05:41.331Z,15.70
2019-04-25T21:08:10.992Z,15.60
2019-04-25T21:10:41.055Z,15.50
2019-04-25T21:13:12.211Z,15.40
2019-04-25T21:15:54.146Z,15.40
2019-04-25T21:18:25.600Z,15.40
2019-04-25T21:20:55.286Z,15.30
2019-04-25T21:23:25.371Z,15.30
2019-04-25T21:25:56.753Z,15.30
2019-04-25T21:28:26.805Z,15.20
2019-04-25T21:30:56.807Z,15.10
2019-04-25T21:33:26.547Z,15.10
2019-04-25T21:35:57.345Z,15.00
2019-04-25T21:38:27.535Z,15.00
2019-04-25T21:40:59.859Z,15.00
2019-04-25T21:43:31.401Z,15.00
2019-04-25T21:46:01.567Z,15.00
2019-04-25T21:48:32.603Z,14.90
2019-04-25T21:51:04.468Z,14.90
2019-04-25T21:53:34.126Z,14.90
2019-04-25T21:56:04.015Z,14.80
2019-04-25T21:58:33.656Z,14.80
2019-04-25T22:01:05.392Z,14.80
2019-04-25T22:03:34.999Z,14.70
2019-04-25T22:06:06.011Z,14.70
2019-04-25T22:08:35.604Z,14.80
2019-04-25T22:11:05.543Z,14.70
2019-04-25T22:13:35.513Z,14.70
2019-04-25T22:16:05.949Z,14.60
2019-04-25T22:18:35.895Z,14.50
2019-04-25T22:21:06.539Z,14.50
2019-04-25T22:23:36.925Z,14.40
2019-04-25T22:26:07.209Z,14.30
2019-04-25T22:28:37.311Z,14.30
2019-04-25T22:31:14.308Z,14.30
2019-04-25T22:33:51.551Z,14.20
2019-04-25T22:36:25.561Z,14.10
2019-04-25T22:39:12.215Z,14.10
2019-04-25T22:41:47.109Z,14.00
2019-04-25T22:44:18.617Z,13.90
2019-04-25T22:46:48.804Z,13.90
2019-04-25T22:49:18.466Z,13.90
2019-04-25T22:51:48.087Z,13.90
2019-04-25T22:54:18.578Z,13.90
2019-04-25T22:56:48.204Z,13.90
2019-04-25T22:59:18.154Z,13.90
2019-04-25T23:01:49.947Z,13.90
2019-04-25T23:04:22.225Z,13.90
2019-04-25T23:06:51.756Z,13.90
2019-04-25T23:09:21.492Z,13.80
2019-04-25T23:11:51.532Z,13.80
2019-04-25T23:14:21.418Z,13.80
2019-04-25T23:16:51.474Z,13.80
2019-04-25T23:19:21.302Z,13.80
2019-04-25T23:21:51.273Z,13.80
2019-04-25T23:24:22.679Z,13.80
2019-04-25T23:27:00.068Z,13.70
2019-04-25T23:29:29.830Z,13.80
2019-04-25T23:31:59.393Z,13.70
2019-04-25T23:34:29.311Z,13.70
2019-04-25T23:36:58.824Z,13.80
2019-04-25T23:39:28.633Z,13.80
2019-04-25T23:41:58.203Z,13.70
2019-04-25T23:44:28.119Z,13.70
2019-04-25T23:46:58.221Z,13.70
2019-04-25T23:49:27.961Z,13.60
2019-04-25T23:51:57.686Z,13.50
2019-04-25T23:54:27.326Z,13.40
2019-04-25T23:56:57.466Z,13.40
2019-04-25T23:59:27.473Z,13.40
